Latest Weather Observations for Scone Airport

IDN60801

Issued at 12:04 pm EST Friday 3 July 2015 (issued every 30 minutes, with the page automatically refreshed every 10 minutes)

About weather observations | Map of weather stations | Latest weather observations for NSW | Other Formats
Station Details ID: 061363 Name: SCONE AIRPORT AWS Lat: -32.03 Lon: 150.83 Height: 221.4 m
Data from the previous 72 hours. | See also: Recent months at Scone Airport
Date/Time
EST
Temp
°C
App
Temp
°C
Dew
Point
Rel
Hum
%
Delta-T
°C
Wind Press
QNH
hPa
Press
MSL
hPa
Rain
since 9 am
mm
Dir
 
Spd
km/h
Gust
km/h
Spd
kts
Gust
kts
03/12:00pm 11.6 9.1 1.5 50 4.3 ESE 4 9 2 5 1025.7 1026.0 0.0
03/11:30am 10.9 7.9 0.9 50 4.2 N 6 11 3 6 1026.1 1026.3 0.0
03/11:00am 10.7 8.0 0.2 48 4.3 WNW 4 7 2 4 1026.6 1026.8 0.0
03/10:30am 10.1 7.2 1.2 54 3.7 NNE 6 9 3 5 1027.0 1027.2 0.0
03/10:00am 8.4 7.0 3.3 70 2.2 CALM 0 6 0 3 1027.1 1027.4 0.0
03/09:30am 6.9 5.2 3.9 81 1.3 NNW 2 7 1 4 1027.0 1027.2 0.0
03/09:00am 5.4 2.6 2.9 84 1.0 WNW 7 9 4 5 1027.0 1027.2 0.0
03/08:30am 3.7 0.5 3.0 95 0.3 W 9 11 5 6 1026.5 1026.7 0.0
03/08:00am 2.4 -0.4 2.3 99 0.0 W 6 7 3 4 1026.1 1026.3 0.0
03/07:30am 1.8 0.1 1.7 99 0.0 CALM 0 0 0 0 1025.6 1025.9 0.0
03/07:00am 0.9 -1.3 0.8 99 0.0 WNW 2 6 1 3 1025.5 1025.8 0.0
03/06:30am 0.3 -2.8 0.2 99 0.0 WNW 6 9 3 5 1025.3 1025.6 0.0
03/06:00am -0.9 -3.0 -1.0 99 0.0 CALM 0 0 0 0 1024.9 1025.2 0.0
03/05:30am -0.5 -2.6 -0.6 99 0.0 CALM 0 0 0 0 1024.5 1024.8 0.0
03/05:00am 0.3 -1.7 0.2 99 0.0 CALM 0 0 0 0 1024.1 1024.4 0.0
03/04:30am 0.2 -2.9 0.1 99 0.0 NW 6 7 3 4 1023.8 1024.1 0.0
03/04:00am 0.7 -1.6 0.6 99 0.0 NNE 2 7 1 4 1023.6 1023.9 0.0
03/03:30am 0.5 -1.4 0.4 99 0.0 CALM 0 0 0 0 1023.6 1023.9 0.0
03/03:00am 1.7 -0.4 1.6 99 0.0 NW 2 7 1 4 1023.7 1024.0 0.0
03/02:30am 1.2 -1.8 0.9 98 0.1 NW 6 7 3 4 1023.6 1023.9 0.0
03/02:00am 2.2 0.0 1.3 94 0.3 WSW 2 6 1 3 1023.7 1024.0 0.0
03/01:30am 3.2 1.6 2.6 96 0.2 CALM 0 4 0 2 1023.7 1024.0 0.0
03/01:00am 2.8 -0.7 1.0 88 0.7 NE 9 11 5 6 1023.7 1024.0 0.0
03/12:30am 3.9 1.3 1.1 82 1.1 S 4 7 2 4 1023.8 1024.1 0.0
03/12:00am 5.7 2.9 2.2 78 1.4 SE 6 7 3 4 1024.1 1024.4 0.0
 
Date/Time
EST
Temp
°C
App
Temp
°C
Dew
Point
Rel
Hum
%
Delta-T
°C
Wind Press
QNH
hPa
Press
MSL
hPa
Rain
since 9 am
mm
Dir
 
Spd
km/h
Gust
km/h
Spd
kts
Gust
kts
02/11:30pm 7.8 5.0 3.3 73 1.9 S 7 17 4 9 1023.9 1024.2 0.0
02/11:00pm 7.5 6.1 3.7 77 1.6 CALM 0 6 0 3 1023.8 1024.1 0.0
02/10:30pm 8.1 4.6 3.6 73 2.0 WSW 11 15 6 8 1023.6 1023.9 0.0
02/10:00pm 9.5 5.0 4.1 69 2.4 WSW 17 20 9 11 1023.4 1023.7 0.0
02/09:30pm 10.0 4.2 4.6 69 2.4 W 24 33 13 18 1023.4 1023.7 0.0
02/09:00pm 9.5 3.7 4.3 70 2.3 W 24 30 13 16 1022.9 1023.1 0.0
02/08:30pm 9.4 4.3 4.2 70 2.3 W 20 24 11 13 1022.8 1023.0 0.0
02/08:00pm 9.8 4.9 4.2 68 2.5 WNW 19 24 10 13 1022.8 1023.0 0.0
02/07:30pm 10.0 5.5 4.2 67 2.6 WNW 17 24 9 13 1022.8 1023.0 0.0
02/07:00pm 10.6 6.8 3.9 63 3.0 WNW 13 20 7 11 1022.6 1022.8 0.0
02/06:30pm 10.5 6.3 4.0 64 2.9 WNW 15 20 8 11 1022.3 1022.5 0.0
02/06:00pm 10.4 6.3 4.1 65 2.8 NW 15 19 8 10 1021.8 1022.0 0.0
02/05:30pm 10.4 6.2 3.9 64 2.9 NW 15 19 8 10 1021.2 1021.5 0.0
02/05:00pm 10.0 5.7 3.5 64 2.9 NW 15 22 8 12 1021.0 1021.3 0.0
02/04:30pm 11.3 6.7 3.6 59 3.4 NW 17 22 9 12 1020.9 1021.2 0.0
02/04:00pm 11.6 6.6 3.4 57 3.7 WNW 19 26 10 14 1020.8 1021.1 0.0
02/03:30pm 11.5 5.1 3.0 56 3.8 W 26 35 14 19 1020.3 1020.6 0.0
02/03:00pm 12.1 5.7 3.1 54 4.0 WNW 26 41 14 22 1020.0 1020.3 0.0
02/02:30pm 12.7 6.7 3.4 53 4.2 W 24 39 13 21 1020.3 1020.6 0.0
02/02:00pm 12.9 6.5 3.3 52 4.3 W 26 39 14 21 1020.3 1020.6 0.0
02/01:30pm 12.8 7.5 3.2 52 4.3 W 20 28 11 15 1020.3 1020.6 0.0
02/01:00pm 12.6 6.9 3.0 52 4.3 WNW 22 35 12 19 1020.8 1021.1 0.0
02/12:30pm 12.2 6.1 2.6 52 4.2 WNW 24 35 13 19 1021.1 1021.4 0.0
02/12:00pm 12.1 7.0 3.9 57 3.7 W 20 30 11 16 1021.6 1021.8 0.0
02/11:30am 11.8 5.8 3.3 56 3.8 W 24 35 13 19 1022.3 1022.5 0.0
02/11:00am 10.9 5.5 2.7 57 3.6 W 20 30 11 16 1022.6 1022.8 0.0
02/10:30am 10.5 5.1 2.6 58 3.4 W 20 26 11 14 1022.6 1022.8 0.0
02/10:00am 10.4 6.2 1.8 55 3.6 NW 13 22 7 12 1022.8 1023.0 0.0
02/09:30am 9.6 6.8 3.1 64 2.8 WNW 7 11 4 6 1022.7 1022.9 0.0
02/09:00am 8.1 6.1 2.4 67 2.4 WNW 2 9 1 5 1022.6 1022.8 0.2
02/08:30am 7.3 4.9 4.4 82 1.3 NE 6 9 3 5 1022.3 1022.5 0.2
02/08:00am 5.7 3.2 4.5 92 0.5 NNE 7 11 4 6 1022.1 1022.3 0.2
02/07:30am 3.3 0.4 2.4 94 0.4 ENE 7 9 4 5 1022.4 1022.6 0.2
02/07:00am 5.8 2.7 3.8 87 0.9 N 9 13 5 7 1022.1 1022.3 0.2
02/06:30am 3.3 1.1 3.2 99 0.0 NNE 4 11 2 6 1022.2 1022.4 0.2
02/06:00am 2.7 -0.2 2.6 99 0.0 NNE 7 9 4 5 1022.2 1022.4 0.2
02/05:30am 2.5 -0.4 2.4 99 0.0 NE 7 11 4 6 1022.2 1022.4 0.2
02/05:00am 1.8 -1.2 1.7 99 0.0 WNW 7 9 4 5 1022.2 1022.4 0.2
02/04:30am 2.4 -0.9 2.3 99 0.0 N 9 13 5 7 1021.9 1022.1 0.2
02/04:00am 1.8 -0.3 1.7 99 0.0 WSW 2 7 1 4 1022.0 1022.2 0.2
02/03:30am 1.7 -1.4 1.6 99 0.0 NE 7 11 4 6 1022.0 1022.2 0.2
02/03:00am 2.3 -0.7 2.2 99 0.0 NE 7 9 4 5 1022.4 1022.6 0.2
02/02:30am 1.7 -0.4 1.4 98 0.1 NNE 2 7 1 4 1022.4 1022.6 0.2
02/02:00am 2.8 -0.1 2.7 99 0.0 NNE 7 11 4 6 1022.4 1022.6 0.2
02/01:30am 2.4 -0.1 1.8 96 0.2 NE 4 7 2 4 1022.6 1022.8 0.2
02/01:00am 3.4 0.1 2.5 94 0.4 NW 9 11 5 6 1022.7 1022.9 0.2
02/12:30am 3.2 1.1 1.9 91 0.5 NNW 2 6 1 3 1022.9 1023.1 0.2
02/12:00am 3.2 0.1 0.4 82 1.1 NNE 6 9 3 5 1023.1 1023.3 0.2
 
Date/Time
EST
Temp
°C
App
Temp
°C
Dew
Point
Rel
Hum
%
Delta-T
°C
Wind Press
QNH
hPa
Press
MSL
hPa
Rain
since 9 am
mm
Dir
 
Spd
km/h
Gust
km/h
Spd
kts
Gust
kts
01/11:30pm 6.7 3.8 2.4 74 1.8 NNW 7 9 4 5 1023.5 1023.8 0.2
01/11:00pm 8.7 5.1 2.9 67 2.5 NW 11 17 6 9 1023.7 1024.0 0.2
01/10:30pm 8.3 4.7 2.8 68 2.4 NNW 11 17 6 9 1023.7 1024.0 0.2
01/10:00pm 8.3 4.7 2.8 68 2.3 WNW 11 17 6 9 1023.7 1024.0 0.2
01/09:30pm 8.4 6.5 3.1 69 2.3 NNE 2 6 1 3 1023.9 1024.2 0.2
01/09:00pm 9.8 7.0 3.3 64 2.8 NNW 7 13 4 7 1024.2 1024.5 0.2
01/08:30pm 9.9 8.0 3.0 62 3.0 N 2 6 1 3 1023.9 1024.2 0.2
01/08:00pm 10.8 8.3 4.5 65 2.9 NNW 7 15 4 8 1023.5 1023.8 0.2
01/07:30pm 11.3 8.5 5.0 65 2.9 NNW 9 13 5 7 1023.4 1023.7 0.2
01/07:00pm 11.4 9.3 5.7 68 2.7 NE 6 17 3 9 1023.2 1023.4 0.2
01/06:30pm 11.6 8.1 5.3 65 2.9 W 13 20 7 11 1023.0 1023.2 0.2
01/06:00pm 13.2 9.6 5.1 58 3.8 WSW 13 24 7 13 1022.5 1022.7 0.2
01/05:30pm 13.4 10.4 5.8 60 3.6 WSW 11 13 6 7 1022.3 1022.5 0.2
01/05:00pm 13.8 12.1 7.6 66 3.1 WSW 6 7 3 4 1022.1 1022.3 0.2
01/04:30pm 15.8 14.3 8.3 61 3.8 W 6 9 3 5 1022.0 1022.2 0.2
01/04:00pm 15.9 14.1 9.6 66 3.3 WSW 9 11 5 6 1022.0 1022.2 0.2
01/03:30pm 16.6 16.2 8.1 57 4.4 CALM 0 0 0 0 1021.9 1022.1 0.2
01/03:00pm 17.1 15.4 7.5 53 4.9 NW 6 11 3 6 1022.1 1022.3 0.2
01/02:30pm 17.2 14.7 8.4 56 4.6 W 11 17 6 9 1022.4 1022.6 0.2
01/02:00pm 17.3 15.9 9.5 60 4.1 WNW 7 13 4 7 1022.7 1022.9 0.2
01/01:30pm 16.2 14.8 9.6 65 3.5 SW 7 11 4 6 1023.1 1023.3 0.2
01/01:00pm 16.9 16.3 10.3 65 3.5 NNW 4 11 2 6 1023.5 1023.8 0.2
01/12:30pm 16.1 14.9 10.2 68 3.1 W 7 13 4 7 1023.9 1024.2 0.2
01/12:00pm 15.7 14.2 10.5 71 2.8 WNW 9 13 5 7 1024.4 1024.7 0.2
01/11:30am 14.9 14.1 11.1 78 2.0 NNW 6 9 3 5 1024.9 1025.2 0.2
01/11:00am 14.6 14.1 12.6 88 1.1 WNW 7 9 4 5 1025.4 1025.7 0.2
01/10:30am 14.0 13.0 12.2 89 1.0 WNW 9 13 5 7 1025.6 1025.9 0.2
01/10:00am 13.8 14.1 13.5 98 0.2 N 4 7 2 4 1025.7 1026.0 0.2
01/09:30am 13.2 13.0 13.0 99 0.1 NW 6 9 3 5 1025.8 1026.0 0.0
01/09:00am 12.3 11.9 12.3 100 0.0 NW 6 7 3 4 1025.7 1025.9 2.2
01/08:30am 11.9 11.7 11.9 100 0.0 N 4 7 2 4 1025.5 1025.7 2.2
01/08:00am 11.0 11.3 11.0 100 0.0 CALM 0 0 0 0 1025.4 1025.6 2.2
01/07:30am 10.7 10.6 10.7 100 0.0 NE 2 6 1 3 1025.4 1025.6 2.2
01/07:00am 10.7 10.9 10.7 100 0.0 CALM 0 0 0 0 1025.2 1025.4 2.2
01/06:30am 10.7 10.9 10.7 100 0.0 CALM 0 0 0 0 1025.0 1025.2 2.2
01/06:00am 10.2 10.3 10.2 100 0.0 CALM 0 6 0 3 1024.7 1024.9 2.2
01/05:30am 10.4 10.6 10.4 100 0.0 CALM 0 0 0 0 1024.6 1024.8 2.2
01/05:00am 10.1 9.4 10.1 100 0.0 NNE 4 6 2 3 1024.5 1024.7 2.2
01/04:30am 10.2 10.3 10.2 100 0.0 CALM 0 0 0 0 1024.4 1024.6 2.2
01/04:00am 10.4 9.2 10.4 100 0.0 E 7 9 4 5 1024.4 1024.6 2.2
01/03:30am 10.6 10.1 10.6 100 0.0 SSW 4 9 2 5 1024.7 1024.9 2.2
01/03:00am 10.7 10.6 10.7 100 0.0 WSW 2 7 1 4 1024.9 1025.1 2.2
01/02:30am 10.8 9.9 10.8 100 0.0 NNW 6 7 3 4 1024.7 1024.9 2.2
01/02:00am 10.6 9.7 10.6 100 0.0 NE 6 7 3 4 1024.9 1025.1 2.2
01/01:30am 10.5 10.3 10.5 100 0.0 E 2 9 1 5 1025.1 1025.3 2.0
01/01:00am 10.6 9.5 10.6 100 0.0 NE 7 13 4 7 1025.2 1025.4 1.8
01/12:30am 10.5 9.4 10.5 100 0.0 WNW 7 13 4 7 1025.3 1025.5 1.2
01/12:00am 11.0 10.2 11.0 100 0.0 N 6 7 3 4 1025.2 1025.4 1.2
 
Date/Time
EST
Temp
°C
App
Temp
°C
Dew
Point
Rel
Hum
%
Delta-T
°C
Wind Press
QNH
hPa
Press
MSL
hPa
Rain
since 9 am
mm
Dir
 
Spd
km/h
Gust
km/h
Spd
kts
Gust
kts
30/11:30pm 10.7 9.6 10.7 100 0.0 NNE 7 7 4 4 1025.5 1025.7 1.2
30/11:00pm 10.3 10.1 10.3 100 0.0 NNE 2 7 1 4 1025.8 1026.0 1.2
30/10:30pm 10.2 9.0 10.2 100 0.0 W 7 9 4 5 1026.1 1026.2 1.2
30/10:00pm 10.1 8.8 10.1 100 0.0 NW 7 11 4 6 1026.3 1026.4 1.2
30/09:30pm 10.0 10.1 10.0 100 0.0 CALM 0 0 0 0 1026.1 1026.2 1.2
30/09:00pm 10.1 10.1 9.9 99 0.1 CALM 0 0 0 0 1026.4 1026.5 1.2
30/08:30pm 10.1 10.1 9.9 99 0.1 CALM 0 0 0 0 1026.6 1026.7 1.0
30/08:00pm 10.3 10.4 10.1 99 0.1 CALM 0 0 0 0 1026.5 1026.6 1.0
30/07:30pm 10.5 10.3 10.3 99 0.1 SSE 2 7 1 4 1026.2 1026.3 1.0
30/07:00pm 10.5 9.5 10.3 99 0.1 W 6 7 3 4 1026.3 1026.4 1.0
30/06:30pm 11.2 10.4 11.0 99 0.1 SSW 6 7 3 4 1025.9 1026.1 1.0
30/06:00pm 11.7 11.8 11.5 99 0.1 NNW 2 7 1 4 1025.8 1026.0 1.0
30/05:30pm 12.3 13.0 12.1 99 0.1 CALM 0 0 0 0 1025.8 1026.0 0.8
30/05:00pm 12.3 13.0 12.1 99 0.1 CALM 0 0 0 0 1025.6 1025.8 0.8
30/04:30pm 12.8 11.9 12.6 99 0.1 NNE 9 13 5 7 1025.6 1025.8 0.8
30/04:00pm 13.5 14.2 12.1 91 0.8 CALM 0 6 0 3 1025.7 1025.9 0.2
30/03:30pm 13.9 14.0 11.6 86 1.2 N 2 11 1 6 1025.8 1026.0 0.0
30/03:00pm 14.3 13.5 11.1 81 1.7 NW 6 7 3 4 1025.7 1025.9 0.0
30/02:30pm 14.5 14.5 9.9 74 2.4 CALM 0 0 0 0 1025.9 1026.1 0.0
30/02:00pm 14.5 14.1 9.7 73 2.5 NNE 2 6 1 3 1026.1 1026.2 0.0
30/01:30pm 14.4 14.0 9.6 73 2.5 NW 2 9 1 5 1026.5 1026.6 0.0
30/01:00pm 13.8 13.3 9.5 75 2.2 NNE 2 9 1 5 1026.9 1027.1 0.0
30/12:30pm 12.6 12.2 9.6 82 1.5 WNW 2 7 1 4 1027.4 1027.6 0.0

Other Formats:

Comma delimited format used in spreadsheet applications
http://www.bom.gov.au/fwo/IDN60801/IDN60801.95758.axf

JavaScript Object Notation format (JSON) in row-major order
http://www.bom.gov.au/fwo/IDN60801/IDN60801.95758.json